Time;durP1;ratioP1;P1;durP2;ratioP2;P2;SDS_P1;SDS_P2;PMS_P1;PMS_P2;Temp;Humidity;BMP_temperature;BMP_pressure;BME280_temperature;BME280_humidity;BME280_pressure;Samples;Min_cycle;Max_cycle;Signal;HPM_P1;HPM_P2
2022/07/06 00:00:14;;;;;;;3.07;2.30;;;;;;;16.32;63.52;99261.44;4983856;28;20221;-50
2022/07/06 00:02:41;;;;;;;4.17;2.00;;;;;;;16.28;63.36;99254.88;4971887;28;21032;-49
2022/07/06 00:05:08;;;;;;;3.20;2.10;;;;;;;16.35;64.14;99249.75;4958559;28;20700;-49
2022/07/06 00:07:35;;;;;;;5.33;2.10;;;;;;;16.26;63.75;99251.59;4968819;28;20270;-50
2022/07/06 00:10:04;;;;;;;4.00;2.40;;;;;;;16.20;63.13;99252.28;4970339;28;20267;-50
2022/07/06 00:12:31;;;;;;;4.77;2.63;;;;;;;16.19;63.92;99251.47;4979037;28;20237;-49
2022/07/06 00:14:58;;;;;;;3.97;2.23;;;;;;;16.15;64.26;99260.72;4977313;28;20223;-50
2022/07/06 00:17:25;;;;;;;5.30;2.47;;;;;;;16.15;63.88;99262.50;4950429;28;20272;-49
2022/07/06 00:19:52;;;;;;;2.13;1.93;;;;;;;16.07;63.51;99261.56;4969368;28;20221;-50
2022/07/06 00:22:19;;;;;;;6.33;2.37;;;;;;;16.09;64.22;99258.78;4973397;28;20223;-51
2022/07/06 00:24:46;;;;;;;4.43;2.13;;;;;;;16.01;63.36;99259.59;4972372;28;20697;-50
2022/07/06 00:27:14;;;;;;;4.50;2.40;;;;;;;15.97;64.16;99266.19;4978684;28;20275;-50
2022/07/06 00:29:43;;;;;;;4.87;2.60;;;;;;;15.94;64.85;99261.28;4959887;28;20221;-50
2022/07/06 00:32:11;;;;;;;4.70;2.13;;;;;;;15.89;63.96;99263.63;4955280;28;20244;-50
2022/07/06 00:34:39;;;;;;;5.60;2.20;;;;;;;15.84;64.39;99258.81;4974434;28;20231;-49
2022/07/06 00:37:06;;;;;;;4.93;2.10;;;;;;;15.77;64.79;99268.38;4951150;28;20325;-52
2022/07/06 00:39:33;;;;;;;7.30;2.10;;;;;;;15.75;65.58;99270.34;4951846;28;20231;-49
2022/07/06 00:42:01;;;;;;;3.57;2.30;;;;;;;15.64;65.36;99271.53;4960087;28;20279;-49
2022/07/06 00:44:30;;;;;;;3.73;2.37;;;;;;;15.59;66.16;99276.50;4951041;28;20223;-50
2022/07/06 00:46:58;;;;;;;3.80;2.30;;;;;;;15.52;66.05;99280.78;4950789;28;20218;-49
2022/07/06 00:52:11;;;;;;;4.37;2.33;;;;;;;15.57;65.20;99279.28;4957773;28;20311;-49
2022/07/06 00:54:40;;;;;;;4.30;2.50;;;;;;;15.56;65.45;99282.09;4968418;28;20269;-51
2022/07/06 00:57:07;;;;;;;3.70;2.37;;;;;;;15.52;65.91;99281.59;4967721;28;20725;-51
2022/07/06 00:59:36;;;;;;;4.33;2.30;;;;;;;15.44;66.23;99281.59;4979546;28;20218;-50
2022/07/06 01:02:03;;;;;;;2.47;2.10;;;;;;;15.44;66.78;99290.31;4961294;28;20221;-50
2022/07/06 01:04:29;;;;;;;3.10;2.60;;;;;;;15.35;66.20;99286.88;4979033;28;20195;-49
2022/07/06 01:06:57;;;;;;;4.07;2.43;;;;;;;15.38;66.86;99285.72;4959258;28;20203;-50
2022/07/06 01:09:24;;;;;;;2.83;2.43;;;;;;;15.36;67.12;99282.44;4962405;28;20215;-50
2022/07/06 01:11:53;;;;;;;4.53;2.50;;;;;;;15.28;66.65;99280.66;4974073;28;20195;-50
2022/07/06 01:14:21;;;;;;;3.87;2.57;;;;;;;15.30;66.80;99289.19;4958692;28;20675;-49
2022/07/06 01:16:49;;;;;;;5.60;2.43;;;;;;;15.23;66.29;99280.31;4960874;28;20790;-50
2022/07/06 01:19:16;;;;;;;3.73;2.40;;;;;;;15.26;67.46;99269.47;4960475;28;20197;-50
2022/07/06 01:21:45;;;;;;;7.70;2.33;;;;;;;15.16;67.53;99274.88;4958867;28;20191;-49
2022/07/06 01:24:12;;;;;;;5.60;2.50;;;;;;;15.05;67.43;99277.81;4960807;28;20234;-49
2022/07/06 01:26:39;;;;;;;3.20;2.37;;;;;;;15.10;68.68;99278.16;4959130;28;20205;-51
2022/07/06 01:29:06;;;;;;;3.23;2.30;;;;;;;15.01;68.69;99258.09;4961961;28;20674;-49
2022/07/06 01:31:33;;;;;;;6.63;2.30;;;;;;;14.98;68.10;99268.94;4979737;28;20187;-50
2022/07/06 01:33:59;;;;;;;2.73;2.43;;;;;;;14.85;67.98;99265.00;4982778;28;20564;-50
2022/07/06 01:36:26;;;;;;;3.30;2.17;;;;;;;14.87;68.20;99267.47;4960388;28;20707;-50
2022/07/06 01:38:57;;;;;;;4.30;2.40;;;;;;;14.81;69.47;99268.97;4961317;28;20209;-50
2022/07/06 01:41:25;;;;;;;3.77;2.37;;;;;;;14.81;68.91;99273.38;4959460;28;20204;-50
2022/07/06 01:43:52;;;;;;;3.40;2.40;;;;;;;14.83;69.31;99272.25;4975742;28;20581;-52
2022/07/06 01:46:20;;;;;;;6.80;2.80;;;;;;;14.86;68.42;99273.72;4959427;28;20266;-51
2022/07/06 01:48:47;;;;;;;7.87;2.50;;;;;;;14.90;68.09;99286.34;4958756;28;20235;-51
2022/07/06 01:51:15;;;;;;;5.70;2.90;;;;;;;14.97;67.49;99280.44;4958804;28;20214;-50
2022/07/06 01:53:44;;;;;;;3.47;2.67;;;;;;;15.07;68.41;99275.06;4957166;28;20316;-51
2022/07/06 01:56:13;;;;;;;4.30;2.80;;;;;;;15.07;68.07;99275.06;4960180;28;20224;-50
2022/07/06 01:58:41;;;;;;;4.37;2.67;;;;;;;15.00;68.33;99270.44;4958734;28;20204;-52
2022/07/06 02:01:10;;;;;;;7.03;2.73;;;;;;;14.99;68.71;99268.81;4960380;28;20558;-50
2022/07/06 02:03:39;;;;;;;5.77;3.20;;;;;;;15.06;68.80;99271.59;4957957;28;20227;-50
2022/07/06 02:06:06;;;;;;;3.83;2.67;;;;;;;15.07;68.38;99275.84;4975806;28;20197;-50
2022/07/06 02:08:34;;;;;;;5.37;3.20;;;;;;;15.00;68.60;99274.88;4961019;28;20292;-49
2022/07/06 02:11:01;;;;;;;4.07;3.13;;;;;;;15.03;69.10;99282.44;4959616;28;20291;-50
2022/07/06 02:13:31;;;;;;;5.47;3.03;;;;;;;15.02;68.42;99276.38;4960319;28;20231;-50
2022/07/06 02:16:00;;;;;;;6.73;3.13;;;;;;;15.12;68.22;99283.28;4960005;28;20638;-49
2022/07/06 02:18:27;;;;;;;3.77;3.17;;;;;;;15.10;68.06;99283.41;4958760;28;20211;-50
2022/07/06 02:20:57;;;;;;;4.80;3.27;;;;;;;15.17;68.33;99276.53;4957968;28;20230;-50
2022/07/06 02:23:25;;;;;;;6.17;3.30;;;;;;;15.11;67.97;99271.91;4958099;28;20218;-50
2022/07/06 02:25:53;;;;;;;5.03;3.23;;;;;;;15.10;68.09;99272.09;4959925;28;20196;-50
2022/07/06 02:28:21;;;;;;;7.23;3.50;;;;;;;15.20;68.33;99278.00;4958592;28;20198;-52
2022/07/06 02:30:49;;;;;;;5.93;3.43;;;;;;;15.19;67.83;99279.00;4959062;28;20199;-50
2022/07/06 02:33:16;;;;;;;3.27;2.47;;;;;;;15.16;67.75;99277.50;4958205;28;20238;-50
2022/07/06 02:35:44;;;;;;;6.03;3.20;;;;;;;15.17;68.38;99279.16;4958441;28;20223;-51
2022/07/06 02:38:12;;;;;;;6.40;3.50;;;;;;;15.25;68.38;99265.19;4959748;28;20199;-52
2022/07/06 02:40:40;;;;;;;6.40;3.60;;;;;;;15.44;67.38;99269.28;4959547;28;20211;-52
2022/07/06 02:43:07;;;;;;;5.87;3.77;;;;;;;15.37;67.53;99275.38;4962526;28;20315;-50
2022/07/06 02:45:36;;;;;;;6.90;3.70;;;;;;;15.33;68.36;99280.13;4970388;28;20188;-52
2022/07/06 02:48:05;;;;;;;6.73;3.20;;;;;;;15.24;68.51;99286.38;4965150;28;20227;-50
2022/07/06 02:50:34;;;;;;;4.30;3.33;;;;;;;15.17;69.78;99286.22;4968361;28;20324;-50
2022/07/06 02:53:01;;;;;;;8.60;3.60;;;;;;;15.13;68.42;99287.53;4965042;28;20223;-52
2022/07/06 02:55:30;;;;;;;6.10;3.33;;;;;;;15.14;68.34;99292.63;4971089;28;20208;-51
2022/07/06 02:57:57;;;;;;;6.37;2.80;;;;;;;15.15;69.07;99296.91;4972054;28;20608;-50
2022/07/06 03:00:24;;;;;;;4.50;3.53;;;;;;;15.37;68.23;99296.41;4965026;28;20512;-51
2022/07/06 03:02:52;;;;;;;7.17;3.63;;;;;;;15.25;68.22;99301.19;4966636;28;20224;-50
2022/07/06 03:05:21;;;;;;;6.83;3.83;;;;;;;15.15;68.47;99301.34;4967958;28;20312;-50
2022/07/06 03:07:48;;;;;;;4.73;3.60;;;;;;;15.22;68.62;99312.03;4970957;28;20196;-52
2022/07/06 03:10:16;;;;;;;7.13;3.63;;;;;;;15.11;68.92;99302.66;4968063;28;20199;-50
2022/07/06 03:12:43;;;;;;;6.37;3.63;;;;;;;15.08;70.32;99311.69;4954236;28;20305;-50
2022/07/06 03:15:12;;;;;;;4.97;3.40;;;;;;;14.98;69.88;99326.78;4960927;28;20199;-50
2022/07/06 03:17:40;;;;;;;9.23;4.07;;;;;;;14.90;70.25;99322.34;4966435;28;20224;-50
2022/07/06 03:20:09;;;;;;;7.93;3.90;;;;;;;14.84;71.09;99321.16;4960673;28;20246;-51
2022/07/06 03:22:37;;;;;;;7.57;3.80;;;;;;;14.76;71.50;99319.38;4959299;28;20245;-50
2022/07/06 03:25:06;;;;;;;4.10;3.40;;;;;;;14.71;71.80;99319.03;4956445;28;20713;-50
2022/07/06 03:27:35;;;;;;;5.10;3.57;;;;;;;14.69;72.16;99313.09;4961602;28;20205;-50
2022/07/06 03:30:04;;;;;;;4.93;3.30;;;;;;;14.60;72.95;99316.66;4966062;28;20308;-50
2022/07/06 03:32:33;;;;;;;6.70;3.57;;;;;;;14.51;72.90;99313.19;4961351;28;20220;-52
2022/07/06 03:35:03;;;;;;;5.10;3.93;;;;;;;14.45;73.28;99312.00;4963356;28;20198;-50
2022/07/06 03:37:32;;;;;;;11.97;3.50;;;;;;;14.42;73.08;99314.16;4964499;28;20299;-50
2022/07/06 03:40:01;;;;;;;8.13;3.73;;;;;;;14.37;73.30;99311.19;4956432;28;20208;-50
2022/07/06 03:42:29;;;;;;;5.70;3.40;;;;;;;14.30;73.98;99311.00;4958144;28;20311;-51
2022/07/06 03:44:57;;;;;;;7.87;3.63;;;;;;;14.28;74.10;99316.38;4957186;28;20687;-50
2022/07/06 03:47:26;;;;;;;5.83;3.70;;;;;;;14.27;74.57;99306.06;4954622;28;20543;-50
2022/07/06 03:50:11;;;;;;;4.90;3.50;;;;;;;14.22;74.85;99314.41;4974775;28;20672;-49
2022/07/06 03:52:40;;;;;;;9.03;3.93;;;;;;;14.24;74.83;99314.25;4956350;28;20229;-50
2022/07/06 03:55:11;;;;;;;3.80;3.50;;;;;;;14.20;75.02;99308.47;4953057;28;20665;-49
2022/07/06 03:57:40;;;;;;;5.60;3.70;;;;;;;14.20;75.29;99307.66;4961992;28;20217;-49
2022/07/06 04:00:11;;;;;;;4.73;3.63;;;;;;;14.22;75.10;99305.72;4959088;28;20200;-49
2022/07/06 04:02:43;;;;;;;5.37;4.43;;;;;;;14.20;75.66;99307.66;4957046;28;20408;-49
2022/07/06 04:05:20;;;;;;;5.50;4.03;;;;;;;14.19;76.33;99314.72;4960584;28;20212;-51
2022/07/06 04:07:49;;;;;;;5.83;4.63;;;;;;;14.20;77.25;99308.47;4953630;28;20282;-51
2022/07/06 04:10:18;;;;;;;9.40;3.67;;;;;;;14.22;77.70;99306.53;4952577;28;20222;-50
2022/07/06 04:12:46;;;;;;;6.33;3.90;;;;;;;14.27;76.86;99309.50;4958505;28;20310;-49
2022/07/06 04:15:14;;;;;;;5.50;3.80;;;;;;;14.26;76.95;99312.28;4962130;28;20213;-50
2022/07/06 04:17:53;;;;;;;6.10;3.63;;;;;;;14.22;77.12;99311.78;4957678;28;20649;-49
2022/07/06 04:20:31;;;;;;;4.80;3.83;;;;;;;14.23;77.39;99312.59;4981960;28;20288;-50
2022/07/06 04:22:58;;;;;;;3.87;3.50;;;;;;;14.22;77.63;99313.59;4952846;28;20229;-53
2022/07/06 04:25:28;;;;;;;5.27;3.83;;;;;;;14.19;77.45;99317.34;4954421;28;20195;-49
2022/07/06 04:27:59;;;;;;;6.43;3.47;;;;;;;14.20;77.89;99316.34;4955314;28;20199;-51
2022/07/06 04:30:27;;;;;;;6.80;4.13;;;;;;;14.21;78.63;99319.81;4963733;28;20207;-50
2022/07/06 04:32:55;;;;;;;5.33;3.80;;;;;;;14.17;78.45;99324.53;4958592;28;20226;-50
2022/07/06 04:35:25;;;;;;;4.87;4.20;;;;;;;14.17;79.08;99324.53;4955205;28;20666;-49
2022/07/06 04:37:54;;;;;;;6.28;4.80;;;;;;;14.21;79.42;99323.25;4952265;28;20450;-51
2022/07/06 04:40:22;;;;;;;6.00;4.17;;;;;;;14.24;78.80;99333.44;4961854;28;20206;-49
2022/07/06 04:42:54;;;;;;;4.43;3.97;;;;;;;14.25;79.05;99327.22;4954630;28;20261;-51
2022/07/06 04:45:22;;;;;;;4.87;3.83;;;;;;;14.24;78.41;99330.81;4957027;28;20206;-52
2022/07/06 04:47:49;;;;;;;6.13;3.53;;;;;;;14.33;79.09;99339.53;4957058;28;20199;-50
2022/07/06 04:50:18;;;;;;;6.03;4.10;;;;;;;14.34;78.90;99330.69;4954594;28;20626;-50
2022/07/06 04:52:46;;;;;;;4.90;4.10;;;;;;;14.36;78.44;99336.59;4963778;28;20251;-50
2022/07/06 04:55:14;;;;;;;5.80;4.33;;;;;;;14.37;78.75;99325.13;4951439;28;20204;-50
2022/07/06 04:57:42;;;;;;;6.53;4.47;;;;;;;14.39;78.93;99335.47;4954966;28;20223;-49
2022/07/06 05:00:14;;;;;;;6.43;4.17;;;;;;;14.40;79.18;99334.50;4958264;28;20200;-50
2022/07/06 05:02:43;;;;;;;7.87;4.37;;;;;;;14.53;77.69;99332.25;4953394;28;20311;-50
2022/07/06 05:05:10;;;;;;;5.57;4.03;;;;;;;14.59;77.38;99334.25;4960331;28;20203;-50
2022/07/06 05:07:39;;;;;;;4.90;4.33;;;;;;;14.77;75.63;99338.59;4957749;28;20200;-51
2022/07/06 05:10:08;;;;;;;10.53;4.20;;;;;;;14.95;74.96;99332.38;4952877;28;20196;-49
2022/07/06 05:12:35;;;;;;;5.47;4.60;;;;;;;15.03;74.55;99327.13;4959786;28;20241;-49
2022/07/06 05:15:03;;;;;;;4.47;4.00;;;;;;;15.11;73.06;99335.03;4960557;28;20841;-49
2022/07/06 05:17:32;;;;;;;6.53;3.87;;;;;;;15.14;74.43;99341.78;4959730;28;20570;-49
2022/07/06 05:20:01;;;;;;;8.93;4.07;;;;;;;15.16;76.09;99340.63;4956725;28;20254;-49
2022/07/06 05:22:32;;;;;;;7.43;4.23;;;;;;;15.15;75.25;99343.41;4954050;28;20216;-49
2022/07/06 05:24:59;;;;;;;5.47;4.27;;;;;;;15.21;74.13;99340.16;4958438;28;20231;-51
2022/07/06 05:27:26;;;;;;;5.00;3.90;;;;;;;15.26;74.31;99339.63;4963016;28;20552;-49
2022/07/06 05:29:55;;;;;;;6.27;4.20;;;;;;;15.35;73.82;99339.50;4958365;28;20207;-49
2022/07/06 05:32:22;;;;;;;5.43;3.37;;;;;;;15.45;73.28;99339.31;4952793;28;20235;-49
2022/07/06 05:34:52;;;;;;;5.00;3.40;;;;;;;15.47;74.21;99336.50;4959037;28;20228;-49
2022/07/06 05:37:20;;;;;;;13.97;4.17;;;;;;;15.49;74.87;99337.16;4962346;28;20593;-49
2022/07/06 05:39:50;;;;;;;6.27;3.40;;;;;;;15.52;74.78;99341.28;4967132;28;20220;-52
2022/07/06 05:42:18;;;;;;;5.17;4.03;;;;;;;15.62;72.42;99339.31;4954489;28;20240;-52
2022/07/06 05:44:46;;;;;;;6.87;4.40;;;;;;;15.83;71.34;99343.25;4956536;28;20204;-51
2022/07/06 05:50:12;;;;;;;9.37;3.60;;;;;;;16.31;69.99;99336.22;4960412;28;20202;-49
2022/07/06 05:52:45;;;;;;;10.80;3.83;;;;;;;16.60;68.94;99345.31;4961101;28;20564;-49
2022/07/06 05:55:14;;;;;;;5.83;4.17;;;;;;;16.83;65.55;99353.25;4959028;28;20272;-50
2022/07/06 05:57:43;;;;;;;7.73;3.90;;;;;;;16.99;65.07;99350.72;4962633;28;20572;-49
2022/07/06 06:00:11;;;;;;;8.60;3.50;;;;;;;17.09;63.83;99353.94;4961496;28;20223;-49
2022/07/06 06:02:52;;;;;;;5.60;3.20;;;;;;;17.31;63.58;99368.16;4957400;28;20234;-52
2022/07/06 06:05:22;;;;;;;8.47;4.00;;;;;;;17.40;63.19;99358.34;4959211;28;20622;-49
2022/07/06 06:07:52;;;;;;;5.33;3.50;;;;;;;17.45;63.43;99366.56;4962750;28;20203;-49
2022/07/06 06:10:23;;;;;;;4.60;3.20;;;;;;;17.54;62.18;99369.94;4952466;28;20192;-50
2022/07/06 06:12:53;;;;;;;4.97;2.80;;;;;;;17.63;61.87;99365.41;4953027;28;20687;-49
2022/07/06 06:15:20;;;;;;;7.40;3.40;;;;;;;17.59;60.71;99366.78;4965852;28;20202;-49
2022/07/06 06:17:47;;;;;;;5.00;3.40;;;;;;;17.67;60.56;99370.16;4960832;28;20587;-49
2022/07/06 06:20:15;;;;;;;8.13;3.23;;;;;;;17.71;60.71;99370.63;4983546;28;20207;-49
2022/07/06 06:22:48;;;;;;;5.00;2.97;;;;;;;17.84;59.44;99370.84;4967764;28;21859;-49
2022/07/06 06:25:16;;;;;;;3.97;2.60;;;;;;;18.03;60.58;99368.69;4981044;28;20590;-50
2022/07/06 06:27:42;;;;;;;5.97;3.33;;;;;;;18.27;59.19;99375.53;4975304;28;20553;-50
2022/07/06 06:30:11;;;;;;;6.60;3.03;;;;;;;18.25;59.07;99374.91;4976059;28;20214;-51
2022/07/06 06:32:38;;;;;;;5.17;2.90;;;;;;;18.29;58.11;99372.69;4974449;28;20223;-50
2022/07/06 06:35:06;;;;;;;5.13;3.10;;;;;;;18.31;57.68;99369.88;4973825;28;20616;-49
2022/07/06 06:37:34;;;;;;;7.03;3.03;;;;;;;18.34;56.91;99365.03;4958057;28;20224;-49
2022/07/06 06:40:02;;;;;;;4.20;3.07;;;;;;;18.19;57.78;99366.88;4974720;28;20198;-49
2022/07/06 06:42:29;;;;;;;5.37;2.87;;;;;;;18.19;58.50;99367.69;4973606;28;20227;-49
2022/07/06 06:44:57;;;;;;;8.10;2.90;;;;;;;18.39;57.75;99372.44;4963179;28;20218;-50
2022/07/06 06:47:25;;;;;;;6.97;2.60;;;;;;;18.60;57.96;99376.97;4976599;28;20186;-51
2022/07/06 06:49:51;;;;;;;6.27;3.00;;;;;;;18.73;56.28;99377.13;4977580;28;20196;-51
2022/07/06 06:52:19;;;;;;;4.47;2.53;;;;;;;18.66;56.16;99384.16;4970410;28;20255;-49
2022/07/06 06:54:46;;;;;;;6.33;2.87;;;;;;;18.66;55.96;99376.22;4972961;28;20201;-50
2022/07/06 06:57:14;;;;;;;6.60;2.60;;;;;;;18.63;56.09;99376.59;4977150;28;20212;-51
2022/07/06 06:59:41;;;;;;;3.20;2.50;;;;;;;18.68;56.89;99382.16;4978698;28;20263;-52
2022/07/06 07:02:08;;;;;;;7.47;2.90;;;;;;;18.81;56.56;99367.44;4963419;28;20208;-49
2022/07/06 07:04:35;;;;;;;6.07;2.93;;;;;;;18.83;56.42;99371.53;4978830;28;20195;-50
2022/07/06 07:07:02;;;;;;;5.40;2.77;;;;;;;18.62;56.98;99374.97;4974892;28;20198;-51
2022/07/06 07:09:30;;;;;;;5.93;3.30;;;;;;;18.63;56.07;99383.69;4981802;28;20199;-52
2022/07/06 07:11:57;;;;;;;6.63;3.20;;;;;;;18.69;56.95;99378.50;4977260;28;20202;-49
2022/07/06 07:14:27;;;;;;;4.17;3.10;;;;;;;18.65;56.43;99387.81;4980700;28;20206;-49
2022/07/06 07:17:13;;;;;;;3.60;2.77;;;;;;;18.58;56.39;99376.31;4983323;28;20591;-49
2022/07/06 07:19:41;;;;;;;6.13;3.10;;;;;;;18.67;56.08;99384.97;4962544;28;20212;-50
2022/07/06 07:22:09;;;;;;;5.90;3.37;;;;;;;18.54;56.55;99377.69;4978356;28;20567;-49
2022/07/06 07:24:35;;;;;;;5.37;2.97;;;;;;;18.68;55.53;99381.31;4976964;28;20669;-50
2022/07/06 07:27:04;;;;;;;5.50;3.30;;;;;;;18.78;55.91;99373.91;4978691;28;20207;-50
2022/07/06 07:29:33;;;;;;;5.83;2.83;;;;;;;18.91;55.45;99370.63;4953923;28;20194;-50
2022/07/06 07:32:01;;;;;;;6.83;2.57;;;;;;;18.86;55.89;99368.50;4977434;28;20204;-50
2022/07/06 07:34:28;;;;;;;8.30;2.80;;;;;;;18.99;55.28;99372.34;4976932;28;20207;-49
2022/07/06 07:36:55;;;;;;;9.43;3.07;;;;;;;19.20;55.00;99370.72;4972349;28;20217;-52
2022/07/06 07:39:22;;;;;;;5.47;2.77;;;;;;;19.38;54.67;99370.28;4973135;28;20201;-49
2022/07/06 07:41:50;;;;;;;5.87;2.60;;;;;;;19.54;54.90;99374.50;4973588;28;20285;-49
2022/07/06 07:44:16;;;;;;;4.07;2.80;;;;;;;19.60;54.16;99371.09;4974709;28;20193;-49
2022/07/06 07:46:45;;;;;;;6.30;2.73;;;;;;;19.53;54.16;99370.22;4974657;28;20226;-52
2022/07/06 07:49:12;;;;;;;6.43;2.40;;;;;;;19.66;54.05;99374.78;4978391;28;20196;-49
2022/07/06 07:51:41;;;;;;;5.70;2.67;;;;;;;19.53;53.44;99370.22;4955561;28;20248;-50
2022/07/06 07:54:08;;;;;;;6.70;2.87;;;;;;;19.43;53.76;99371.34;4978048;28;20302;-50
2022/07/06 07:56:34;;;;;;;5.43;2.40;;;;;;;19.47;53.12;99364.66;4978469;28;20283;-49
2022/07/06 07:59:01;;;;;;;3.30;2.63;;;;;;;19.67;53.35;99368.47;4978740;28;20193;-49
2022/07/06 08:01:31;;;;;;;4.90;2.50;;;;;;;19.73;52.67;99368.50;4961097;28;20196;-50
2022/07/06 08:04:00;;;;;;;4.97;2.73;;;;;;;19.87;53.55;99368.63;4981353;28;20303;-50
2022/07/06 08:06:27;;;;;;;4.53;2.30;;;;;;;20.04;52.57;99371.81;4980167;28;20646;-51
2022/07/06 08:08:54;;;;;;;6.10;2.57;;;;;;;20.03;52.21;99371.00;4977965;28;20195;-50
2022/07/06 08:11:21;;;;;;;5.27;2.30;;;;;;;20.28;53.02;99372.34;4979064;28;20195;-50
2022/07/06 08:13:48;;;;;;;2.73;2.23;;;;;;;20.43;53.56;99364.28;4978893;28;20225;-51
2022/07/06 08:16:15;;;;;;;5.20;1.90;;;;;;;20.57;53.36;99362.50;4979786;28;20194;-52
2022/07/06 08:18:42;;;;;;;4.87;2.40;;;;;;;20.60;51.98;99367.41;4977769;28;20718;-51
2022/07/06 08:21:11;;;;;;;5.13;2.83;;;;;;;20.47;52.08;99370.81;4978590;28;20192;-51
2022/07/06 08:23:37;;;;;;;3.83;2.67;;;;;;;20.46;53.21;99374.50;4969718;28;20294;-51
2022/07/06 08:26:05;;;;;;;7.23;2.63;;;;;;;20.49;54.13;99372.25;4980602;28;20228;-50
2022/07/06 08:28:32;;;;;;;6.20;2.87;;;;;;;20.44;52.62;99374.69;4988044;28;20319;-52
2022/07/06 08:30:59;;;;;;;6.50;2.90;;;;;;;20.33;53.25;99378.72;4959918;28;20242;-50
2022/07/06 08:33:27;;;;;;;7.30;2.60;;;;;;;20.33;53.42;99381.38;4958965;28;20218;-57
2022/07/06 08:35:54;;;;;;;4.90;2.87;;;;;;;20.35;53.02;99368.72;4977465;28;20199;-55
2022/07/06 08:38:22;;;;;;;4.10;2.80;;;;;;;20.12;54.98;99371.69;4975038;28;20222;-49
2022/07/06 08:40:51;;;;;;;18.07;3.70;;;;;;;20.37;54.12;99376.47;4972158;28;20585;-49
2022/07/06 08:43:18;;;;;;;6.77;2.93;;;;;;;20.45;53.96;99372.84;4971022;28;20206;-49
2022/07/06 08:45:46;;;;;;;4.93;2.77;;;;;;;20.40;53.70;99384.03;4954776;28;20572;-49
2022/07/06 08:48:37;;;;;;;8.77;2.60;;;;;;;20.57;52.23;99375.75;4971271;28;20210;-49
2022/07/06 08:51:05;;;;;;;8.20;2.87;;;;;;;20.48;52.51;99386.53;4955695;28;20718;-49
2022/07/06 08:53:34;;;;;;;4.77;2.97;;;;;;;20.45;52.38;99391.41;4970404;28;20214;-49
2022/07/06 08:56:02;;;;;;;3.70;2.70;;;;;;;20.45;52.98;99378.16;4968332;28;20204;-49
2022/07/06 08:58:29;;;;;;;5.67;2.90;;;;;;;20.48;52.38;99389.19;4974160;28;20217;-52
2022/07/06 09:00:56;;;;;;;5.40;3.20;;;;;;;20.33;52.93;99394.63;4958400;28;20456;-51
2022/07/06 09:03:42;;;;;;;4.77;3.00;;;;;;;20.59;52.27;99392.28;4976202;28;20230;-50
2022/07/06 09:06:09;;;;;;;5.70;2.80;;;;;;;20.60;52.12;99393.94;4967749;28;20210;-50
2022/07/06 09:08:38;;;;;;;5.40;2.67;;;;;;;20.71;52.71;99400.47;4967273;28;20274;-50
2022/07/06 09:11:05;;;;;;;4.87;3.27;;;;;;;20.57;50.73;99403.09;4974697;28;20717;-51
2022/07/06 09:13:32;;;;;;;7.70;3.30;;;;;;;20.33;52.21;99407.03;4976926;28;20221;-52
2022/07/06 09:16:10;;;;;;;5.20;3.10;;;;;;;20.28;53.73;99412.13;4972076;28;20408;-50
2022/07/06 09:18:38;;;;;;;7.67;3.50;;;;;;;20.23;52.86;99403.94;4968547;28;20293;-51
2022/07/06 09:21:05;;;;;;;6.57;3.40;;;;;;;20.45;51.83;99410.78;4973722;28;20572;-50
2022/07/06 09:23:32;;;;;;;9.87;2.83;;;;;;;20.49;52.14;99409.38;4971942;28;20869;-49
2022/07/06 09:26:02;;;;;;;5.93;3.40;;;;;;;20.63;51.43;99409.44;4969738;28;20206;-49
2022/07/06 09:28:41;;;;;;;7.13;3.10;;;;;;;20.73;50.84;99431.13;4967687;28;20222;-49
2022/07/06 09:31:09;;;;;;;6.50;3.67;;;;;;;20.74;50.45;99411.53;4973809;28;20206;-49
2022/07/06 09:33:36;;;;;;;7.67;3.43;;;;;;;20.70;51.19;99417.41;4973832;28;20714;-50
2022/07/06 09:36:05;;;;;;;5.13;3.17;;;;;;;20.91;50.62;99413.88;4971697;28;20286;-49
2022/07/06 09:38:32;;;;;;;5.20;2.90;;;;;;;21.15;50.41;99432.94;4967086;28;20222;-50
2022/07/06 09:41:02;;;;;;;5.17;3.50;;;;;;;21.04;49.67;99427.19;4969481;28;20195;-51
2022/07/06 09:43:31;;;;;;;8.57;3.00;;;;;;;21.17;50.87;99420.28;4969740;28;20587;-51
2022/07/06 09:45:58;;;;;;;4.87;2.87;;;;;;;21.24;50.06;99421.09;4972389;28;20199;-53
2022/07/06 09:48:27;;;;;;;5.67;3.27;;;;;;;21.24;50.42;99427.22;4950123;28;20195;-51
2022/07/06 09:50:55;;;;;;;7.70;3.40;;;;;;;21.38;49.74;99432.56;4967748;28;20197;-51
2022/07/06 09:53:25;;;;;;;7.33;2.90;;;;;;;21.55;48.96;99440.16;4967029;28;20220;-52
2022/07/06 09:55:54;;;;;;;8.27;3.00;;;;;;;21.58;48.93;99437.91;4967431;28;20262;-50
2022/07/06 09:58:22;;;;;;;5.10;2.87;;;;;;;21.72;48.89;99444.09;4967973;28;20216;-51
2022/07/06 10:00:50;;;;;;;5.30;3.50;;;;;;;21.57;49.51;99444.22;4966948;28;20205;-51
2022/07/06 10:03:18;;;;;;;5.33;2.93;;;;;;;21.74;47.42;99452.63;4970805;28;20218;-50
2022/07/06 10:05:47;;;;;;;6.90;3.53;;;;;;;21.60;48.13;99443.81;4976854;28;20655;-52
2022/07/06 10:08:15;;;;;;;8.53;3.30;;;;;;;21.80;47.57;99445.72;4970005;28;20199;-53
2022/07/06 10:10:43;;;;;;;6.27;2.70;;;;;;;22.01;48.32;99451.84;4955188;28;20222;-50
2022/07/06 10:13:11;;;;;;;6.40;2.83;;;;;;;22.13;47.11;99452.84;4956972;28;20235;-50
2022/07/06 10:15:41;;;;;;;7.13;2.67;;;;;;;22.25;47.57;99459.19;4968883;28;20278;-51
2022/07/06 10:18:09;;;;;;;6.33;3.60;;;;;;;22.17;46.12;99456.75;4972239;28;20222;-51
2022/07/06 10:20:39;;;;;;;5.43;2.67;;;;;;;22.21;45.93;99462.44;4975113;28;20198;-51
2022/07/06 10:23:07;;;;;;;10.43;3.20;;;;;;;21.85;47.77;99456.56;4971617;28;20223;-51
2022/07/06 10:25:55;;;;;;;5.90;3.23;;;;;;;22.01;46.91;99459.81;4967723;28;20762;-51
2022/07/06 10:28:23;;;;;;;8.03;2.63;;;;;;;22.06;46.50;99462.69;4967533;28;20189;-51
2022/07/06 10:30:51;;;;;;;5.20;3.13;;;;;;;22.04;46.79;99451.44;4967851;28;20199;-53
2022/07/06 10:33:19;;;;;;;6.50;3.47;;;;;;;22.29;47.45;99448.09;4973325;28;20224;-51
2022/07/06 10:35:47;;;;;;;9.93;3.30;;;;;;;22.46;46.03;99454.66;4970709;28;20215;-53
2022/07/06 10:38:13;;;;;;;4.53;3.17;;;;;;;22.50;45.06;99458.53;4977465;28;20224;-51
2022/07/06 10:43:33;;;;;;;6.73;2.93;;;;;;;22.58;46.73;99448.69;4967531;28;20302;-51
2022/07/06 10:46:06;;;;;;;10.53;3.20;;;;;;;22.68;46.42;99443.75;4975402;28;20209;-51
2022/07/06 10:48:38;;;;;;;6.93;3.10;;;;;;;22.77;44.90;99450.47;4966747;28;20184;-51
2022/07/06 10:51:06;;;;;;;6.23;2.20;;;;;;;23.09;45.40;99447.88;4973102;28;20283;-51
2022/07/06 10:53:34;;;;;;;9.03;2.60;;;;;;;23.00;45.71;99449.94;4972698;28;20223;-51
2022/07/06 10:56:04;;;;;;;4.57;3.03;;;;;;;23.37;44.64;99456.56;4972589;28;20196;-51
2022/07/06 10:58:36;;;;;;;5.50;2.90;;;;;;;23.46;44.85;99451.78;4966630;28;20205;-51
2022/07/06 11:01:06;;;;;;;4.20;2.20;;;;;;;23.71;43.00;99449.94;4968119;28;20196;-51
2022/07/06 11:03:35;;;;;;;5.33;2.33;;;;;;;23.86;41.89;99451.47;4970253;28;20296;-53
2022/07/06 11:06:05;;;;;;;5.30;2.70;;;;;;;23.56;42.37;99441.44;4970669;28;20206;-51
2022/07/06 11:08:43;;;;;;;8.57;2.83;;;;;;;23.52;42.11;99440.25;4955115;28;20677;-51
2022/07/06 11:11:16;;;;;;;4.63;2.33;;;;;;;23.75;43.94;99434.34;4971295;28;20208;-51
2022/07/06 11:13:50;;;;;;;5.77;2.43;;;;;;;23.97;42.03;99442.78;4970044;28;20217;-51
2022/07/06 11:16:19;;;;;;;3.87;2.20;;;;;;;23.81;42.52;99441.50;4970489;28;20197;-51
2022/07/06 11:18:59;;;;;;;4.43;2.20;;;;;;;23.63;42.89;99441.41;4971424;28;20232;-51
2022/07/06 11:21:35;;;;;;;6.50;2.50;;;;;;;23.17;44.25;99438.00;4977581;28;20212;-53
2022/07/06 11:24:04;;;;;;;3.70;2.40;;;;;;;23.67;43.09;99440.75;4979453;28;20230;-51
2022/07/06 11:26:31;;;;;;;6.33;2.50;;;;;;;23.13;44.09;99438.44;4969574;28;20228;-52
2022/07/06 11:29:00;;;;;;;4.47;2.27;;;;;;;23.35;44.52;99426.66;4977181;28;20285;-50
2022/07/06 11:31:29;;;;;;;4.30;2.77;;;;;;;23.28;44.75;99432.03;4980678;28;20724;-50
2022/07/06 11:33:56;;;;;;;9.23;2.60;;;;;;;23.31;43.11;99422.78;4963636;28;20248;-53
2022/07/06 11:36:23;;;;;;;4.83;2.60;;;;;;;23.59;43.26;99419.69;4975374;28;20275;-51
2022/07/06 11:38:51;;;;;;;7.10;2.73;;;;;;;23.58;42.23;99424.22;4970071;28;20213;-51
2022/07/06 11:41:19;;;;;;;7.10;2.27;;;;;;;24.10;42.79;99420.53;4969487;28;20200;-51
2022/07/06 11:43:47;;;;;;;4.70;2.30;;;;;;;24.05;42.93;99414.22;4969521;28;20213;-53
2022/07/06 11:46:24;;;;;;;5.80;2.50;;;;;;;24.32;42.20;99418.25;4970425;28;20208;-50
2022/07/06 11:48:54;;;;;;;3.77;2.40;;;;;;;24.52;40.02;99419.88;4972063;28;20219;-53